Time;durP1;ratioP1;P1;durP2;ratioP2;P2;SDS_P1;SDS_P2;PMS_P1;PMS_P2;Temp;Humidity;BMP_temperature;BMP_pressure;BME280_temperature;BME280_humidity;BME280_pressure;Samples;Min_cycle;Max_cycle;Signal;HPM_P1;HPM_P2
2024/03/23 00:00:03;;;;;;;16.05;2.80;;;11.40;95.50;;;;;;5068474;28;20032;-76
2024/03/23 00:02:38;;;;;;;11.23;1.73;;;11.40;95.40;;;;;;5057898;28;20037;-76
2024/03/23 00:05:05;;;;;;;14.25;3.38;;;11.40;95.50;;;;;;5065060;28;20036;-76
2024/03/23 00:07:32;;;;;;;14.93;3.28;;;11.30;95.50;;;;;;5060088;28;21677;-76
2024/03/23 00:09:59;;;;;;;8.75;2.05;;;11.30;95.60;;;;;;5061501;28;20551;-76
2024/03/23 00:12:25;;;;;;;24.48;3.55;;;11.30;95.60;;;;;;5053551;28;20484;-76
2024/03/23 00:14:52;;;;;;;0.75;0.70;;;11.20;95.50;;;;;;5058428;28;20037;-75
2024/03/23 00:17:19;;;;;;;7.00;2.35;;;11.20;95.50;;;;;;5061371;28;20029;-76
2024/03/23 00:19:46;;;;;;;22.27;3.13;;;11.10;95.60;;;;;;5057347;28;20031;-76
2024/03/23 00:22:12;;;;;;;13.75;3.25;;;11.10;95.60;;;;;;5071074;28;20032;-76
2024/03/23 00:24:39;;;;;;;8.52;1.85;;;11.10;95.70;;;;;;5070210;28;20036;-75
2024/03/23 00:27:06;;;;;;;15.50;3.17;;;11.20;95.70;;;;;;5063599;28;20048;-76
2024/03/23 00:29:32;;;;;;;4.75;1.90;;;11.20;95.70;;;;;;5051663;28;20059;-76
2024/03/23 00:31:59;;;;;;;15.15;2.10;;;11.20;95.70;;;;;;5060220;28;20502;-76
2024/03/23 00:34:26;;;;;;;24.20;4.43;;;11.20;95.70;;;;;;5063760;28;20055;-75
2024/03/23 00:36:52;;;;;;;15.32;2.78;;;11.20;95.60;;;;;;5053829;28;20036;-76
2024/03/23 00:39:19;;;;;;;22.75;3.92;;;11.10;95.70;;;;;;5051151;28;20025;-76
2024/03/23 00:41:46;;;;;;;14.63;4.05;;;11.10;95.60;;;;;;5057065;28;20033;-76
2024/03/23 00:44:13;;;;;;;21.05;3.45;;;11.10;95.70;;;;;;5057878;28;20032;-76
2024/03/23 00:46:39;;;;;;;14.65;1.98;;;11.10;95.60;;;;;;5064065;28;20492;-76
2024/03/23 00:49:06;;;;;;;11.77;3.40;;;11.00;95.60;;;;;;5056327;28;20468;-76
2024/03/23 00:51:32;;;;;;;12.90;2.97;;;11.00;95.60;;;;;;5052276;28;20480;-76
2024/03/23 00:53:58;;;;;;;10.50;2.92;;;11.00;95.50;;;;;;5051083;28;20025;-76
2024/03/23 00:56:24;;;;;;;15.93;3.33;;;10.90;95.60;;;;;;5057291;28;20395;-75
2024/03/23 00:58:50;;;;;;;24.20;3.47;;;10.90;95.60;;;;;;5058975;28;20095;-76
2024/03/23 01:01:15;;;;;;;13.60;2.38;;;10.90;95.60;;;;;;5049306;28;20112;-76
2024/03/23 01:03:41;;;;;;;10.13;1.65;;;11.00;95.60;;;;;;5063260;28;20040;-76
2024/03/23 01:06:06;;;;;;;16.08;2.42;;;10.90;95.60;;;;;;5050153;28;20392;-75
2024/03/23 01:08:32;;;;;;;12.05;1.92;;;10.90;95.60;;;;;;5055988;28;20488;-75
2024/03/23 01:11:00;;;;;;;9.65;2.28;;;10.90;95.60;;;;;;5049406;28;20028;-76
2024/03/23 01:13:26;;;;;;;14.15;2.85;;;10.80;95.60;;;;;;5050286;28;20055;-76
2024/03/23 01:15:53;;;;;;;9.15;2.38;;;10.80;95.60;;;;;;5059937;28;20081;-75
2024/03/23 01:18:19;;;;;;;17.05;3.20;;;10.80;95.60;;;;;;5053861;28;20028;-76
2024/03/23 01:20:45;;;;;;;16.40;2.97;;;10.70;95.60;;;;;;5070225;28;20111;-76
2024/03/23 01:23:11;;;;;;;8.70;2.30;;;10.70;95.50;;;;;;5051543;28;20556;-75
2024/03/23 01:25:37;;;;;;;3.05;1.45;;;10.70;95.60;;;;;;5063830;28;20040;-75
2024/03/23 01:28:03;;;;;;;9.40;2.22;;;10.70;95.60;;;;;;5069906;28;20033;-75
2024/03/23 01:30:28;;;;;;;2.40;1.20;;;10.70;95.60;;;;;;5067730;28;20025;-75
2024/03/23 01:32:54;;;;;;;11.48;3.05;;;10.70;95.50;;;;;;5060582;28;20033;-75
2024/03/23 01:35:19;;;;;;;17.67;3.60;;;10.60;95.50;;;;;;5051779;28;20029;-75
2024/03/23 01:37:45;;;;;;;8.32;2.67;;;10.60;95.50;;;;;;5057080;28;20067;-75
2024/03/23 01:40:13;;;;;;;3.20;1.42;;;10.60;95.50;;;;;;5067702;28;20030;-75
2024/03/23 01:42:41;;;;;;;12.63;2.45;;;10.50;95.50;;;;;;5065674;28;20035;-75
2024/03/23 01:45:08;;;;;;;5.15;1.42;;;10.50;95.60;;;;;;5057626;28;20032;-75
2024/03/23 01:47:34;;;;;;;13.82;2.85;;;10.40;95.60;;;;;;5066637;28;20392;-75
2024/03/23 01:50:00;;;;;;;18.20;3.65;;;10.40;95.60;;;;;;5049404;28;20025;-75
2024/03/23 01:52:27;;;;;;;15.38;3.25;;;10.30;95.70;;;;;;5050547;28;20546;-77
2024/03/23 01:54:53;;;;;;;13.45;2.72;;;10.40;95.70;;;;;;5066951;28;20526;-77
2024/03/23 01:57:23;;;;;;;9.65;2.83;;;10.40;95.60;;;;;;5055707;28;20256;-76
2024/03/23 01:59:49;;;;;;;20.20;2.47;;;10.40;95.60;;;;;;5060988;28;20044;-77
2024/03/23 02:02:23;;;;;;;14.40;2.08;;;10.30;95.60;;;;;;5051907;28;20041;-77
2024/03/23 02:04:48;;;;;;;3.92;1.90;;;10.30;95.60;;;;;;5056067;28;20028;-77
2024/03/23 02:07:14;;;;;;;10.82;2.63;;;10.30;95.60;;;;;;5053971;28;20033;-77
2024/03/23 02:09:39;;;;;;;11.00;2.35;;;10.30;95.60;;;;;;5065675;28;20039;-77
2024/03/23 02:12:05;;;;;;;6.95;2.22;;;10.30;95.60;;;;;;5049774;28;20033;-77
2024/03/23 02:14:32;;;;;;;6.88;1.45;;;10.20;95.50;;;;;;5053916;28;20115;-77
2024/03/23 02:16:58;;;;;;;11.85;2.55;;;10.10;95.70;;;;;;5045934;28;20032;-77
2024/03/23 02:19:24;;;;;;;6.75;2.00;;;10.20;95.70;;;;;;5059529;28;20037;-76
2024/03/23 02:21:49;;;;;;;1.10;0.68;;;10.10;95.60;;;;;;5062574;28;20037;-77
2024/03/23 02:24:15;;;;;;;5.35;1.75;;;10.00;95.60;;;;;;5057253;28;20464;-76
2024/03/23 02:26:40;;;;;;;10.25;2.28;;;10.00;95.70;;;;;;5048655;28;20048;-77
2024/03/23 02:29:06;;;;;;;10.10;2.80;;;10.00;95.80;;;;;;5059164;28;20025;-77
2024/03/23 02:31:32;;;;;;;11.07;1.52;;;9.90;95.80;;;;;;5054896;28;20462;-76
2024/03/23 02:33:58;;;;;;;2.92;1.40;;;9.90;95.80;;;;;;5058152;28;20029;-77
2024/03/23 02:36:24;;;;;;;12.68;1.77;;;9.80;95.90;;;;;;5061261;28;20016;-77
2024/03/23 02:38:49;;;;;;;19.48;2.88;;;9.80;96.00;;;;;;5056614;28;20028;-76
2024/03/23 02:41:15;;;;;;;9.70;1.10;;;9.70;96.00;;;;;;5065634;28;20043;-76
2024/03/23 02:43:41;;;;;;;0.88;0.85;;;9.70;96.00;;;;;;5047957;28;20033;-76
2024/03/23 02:46:06;;;;;;;2.03;1.15;;;9.70;96.10;;;;;;5051884;28;20544;-76
2024/03/23 02:48:33;;;;;;;9.05;2.50;;;9.70;96.10;;;;;;5051277;28;20063;-76
2024/03/23 02:50:58;;;;;;;2.72;1.30;;;9.60;96.00;;;;;;5047312;28;20499;-76
2024/03/23 02:53:24;;;;;;;13.60;2.80;;;9.50;96.10;;;;;;5055286;28;20037;-76
2024/03/23 02:55:50;;;;;;;8.65;2.95;;;9.50;96.10;;;;;;5057717;28;20063;-76
2024/03/23 02:58:15;;;;;;;2.10;1.55;;;9.50;96.20;;;;;;5059147;28;20914;-76
2024/03/23 03:00:41;;;;;;;12.73;2.85;;;9.50;96.40;;;;;;5066374;28;20376;-76
2024/03/23 03:03:07;;;;;;;3.83;2.28;;;9.40;96.30;;;;;;5057494;28;20079;-76
2024/03/23 03:05:32;;;;;;;12.52;1.95;;;9.40;96.30;;;;;;5060317;28;20024;-77
2024/03/23 03:07:58;;;;;;;5.80;2.63;;;9.40;96.30;;;;;;5047042;28;20044;-76
2024/03/23 03:10:24;;;;;;;5.95;2.40;;;9.30;96.30;;;;;;5061020;28;20083;-76
2024/03/23 03:12:49;;;;;;;7.85;2.17;;;9.30;96.40;;;;;;5043931;28;20025;-76
2024/03/23 03:15:15;;;;;;;17.80;2.92;;;9.30;96.40;;;;;;5047200;28;20035;-76
2024/03/23 03:17:41;;;;;;;5.20;2.15;;;9.30;96.40;;;;;;5046726;28;20025;-76
2024/03/23 03:20:13;;;;;;;5.75;2.53;;;9.30;96.40;;;;;;5048041;28;20411;-76
2024/03/23 03:22:39;;;;;;;4.55;1.13;;;9.30;96.40;;;;;;5045531;28;20041;-76
2024/03/23 03:25:06;;;;;;;11.70;2.63;;;9.20;96.40;;;;;;5047384;28;20029;-76
2024/03/23 03:27:32;;;;;;;7.00;1.90;;;9.20;96.40;;;;;;5050987;28;20092;-76
2024/03/23 03:29:59;;;;;;;5.13;1.80;;;9.20;96.40;;;;;;5053120;28;20036;-76
2024/03/23 03:32:24;;;;;;;7.57;2.10;;;9.20;96.40;;;;;;5049615;28;20090;-76
2024/03/23 03:34:50;;;;;;;1.80;1.00;;;9.20;96.40;;;;;;5058025;28;20029;-76
2024/03/23 03:37:16;;;;;;;4.68;1.35;;;9.20;96.40;;;;;;5065710;28;20093;-76
2024/03/23 03:39:41;;;;;;;6.07;1.80;;;9.10;96.30;;;;;;5054433;28;20815;-76
2024/03/23 03:42:07;;;;;;;10.15;2.42;;;9.20;96.30;;;;;;5058220;28;20047;-76
2024/03/23 03:44:33;;;;;;;8.65;1.52;;;9.10;96.30;;;;;;5061173;28;20028;-76
2024/03/23 03:46:59;;;;;;;1.27;0.85;;;9.20;96.30;;;;;;5051214;28;20480;-76
2024/03/23 03:49:25;;;;;;;0.40;0.40;;;9.10;96.30;;;;;;5051105;28;20031;-76
2024/03/23 03:51:50;;;;;;;5.50;1.58;;;9.10;96.20;;;;;;5052092;28;20056;-76
2024/03/23 03:54:16;;;;;;;1.85;1.17;;;9.10;96.20;;;;;;5056918;28;20429;-76
2024/03/23 03:56:41;;;;;;;3.60;1.25;;;9.20;96.20;;;;;;5053255;28;20038;-76
2024/03/23 03:59:07;;;;;;;3.08;1.15;;;9.20;96.10;;;;;;5050995;28;20052;-76
2024/03/23 04:01:33;;;;;;;10.82;2.00;;;9.20;96.10;;;;;;5053049;28;20796;-76
2024/03/23 04:03:58;;;;;;;13.85;1.83;;;9.20;96.10;;;;;;5062911;28;20632;-76
2024/03/23 04:06:24;;;;;;;14.85;2.53;;;9.20;96.10;;;;;;5055059;28;20024;-76
2024/03/23 04:08:49;;;;;;;14.10;1.83;;;9.20;96.00;;;;;;5052418;28;20111;-76
2024/03/23 04:11:15;;;;;;;3.67;1.00;;;9.20;95.90;;;;;;5060032;28;20040;-76
2024/03/23 04:13:41;;;;;;;5.55;1.60;;;9.20;95.90;;;;;;5049261;28;20048;-76
2024/03/23 04:16:07;;;;;;;5.72;1.58;;;9.20;95.90;;;;;;5046299;28;20044;-76
2024/03/23 04:18:33;;;;;;;10.48;1.70;;;9.10;95.90;;;;;;5067555;28;20753;-76
2024/03/23 04:20:58;;;;;;;2.20;1.13;;;9.10;95.90;;;;;;5051841;28;20072;-76
2024/03/23 04:23:24;;;;;;;14.00;1.30;;;9.10;95.80;;;;;;5062088;28;20056;-76
2024/03/23 04:25:49;;;;;;;6.03;1.85;;;9.10;95.90;;;;;;5062788;28;20028;-76
2024/03/23 04:28:15;;;;;;;3.40;2.72;;;9.00;95.80;;;;;;5063560;28;20087;-76
2024/03/23 04:30:41;;;;;;;9.48;2.53;;;9.00;95.90;;;;;;5050694;28;20120;-76
2024/03/23 04:33:07;;;;;;;7.63;1.17;;;9.00;95.90;;;;;;5063459;28;20112;-76
2024/03/23 04:35:33;;;;;;;3.60;1.52;;;9.00;95.90;;;;;;5056735;28;20060;-76
2024/03/23 04:37:58;;;;;;;9.70;2.03;;;8.90;95.80;;;;;;5051539;28;20467;-76
2024/03/23 04:40:25;;;;;;;6.75;2.22;;;8.90;95.90;;;;;;5062596;28;20043;-76
2024/03/23 04:42:51;;;;;;;5.85;1.17;;;8.90;96.00;;;;;;5069087;28;20407;-76
2024/03/23 04:45:16;;;;;;;2.97;1.98;;;8.80;96.30;;;;;;5068624;28;20028;-76
2024/03/23 04:47:42;;;;;;;7.55;1.55;;;8.80;96.00;;;;;;5058615;28;20040;-76
2024/03/23 04:50:10;;;;;;;6.07;1.75;;;8.80;96.10;;;;;;5068834;28;20684;-76
2024/03/23 04:52:36;;;;;;;9.63;2.63;;;8.80;95.90;;;;;;5050812;28;20044;-77
2024/03/23 04:55:01;;;;;;;6.47;1.73;;;8.80;96.00;;;;;;5051224;28;20498;-76
2024/03/23 04:57:29;;;;;;;4.40;1.63;;;8.70;96.00;;;;;;5057172;28;20404;-76
2024/03/23 04:59:55;;;;;;;6.38;2.47;;;8.70;96.10;;;;;;5055422;28;20033;-76
2024/03/23 05:02:21;;;;;;;3.25;1.33;;;8.70;96.10;;;;;;5067529;28;20028;-76
2024/03/23 05:04:47;;;;;;;6.22;1.85;;;8.60;96.10;;;;;;5064715;28;20086;-76
2024/03/23 05:07:13;;;;;;;8.70;2.53;;;8.60;96.10;;;;;;5061173;28;20430;-76
2024/03/23 05:09:39;;;;;;;0.85;0.82;;;8.60;96.10;;;;;;5058138;28;20103;-76
2024/03/23 05:12:05;;;;;;;3.75;1.73;;;8.60;96.30;;;;;;5050070;28;20035;-76
2024/03/23 05:14:30;;;;;;;17.33;0.98;;;8.60;96.20;;;;;;5063695;28;20055;-76
2024/03/23 05:16:56;;;;;;;3.00;1.20;;;8.60;96.20;;;;;;5058622;28;20411;-76
2024/03/23 05:19:22;;;;;;;3.85;1.58;;;8.60;96.20;;;;;;5053557;28;20033;-76
2024/03/23 05:21:48;;;;;;;5.38;1.75;;;8.60;96.10;;;;;;5061272;28;20039;-76
2024/03/23 05:24:13;;;;;;;9.70;2.17;;;8.60;96.10;;;;;;5050400;28;20033;-77
2024/03/23 05:26:39;;;;;;;5.95;2.50;;;8.60;96.20;;;;;;5057423;28;20044;-76
2024/03/23 05:29:06;;;;;;;3.50;1.40;;;8.60;96.10;;;;;;5068251;28;20029;-76
2024/03/23 05:31:32;;;;;;;7.43;2.65;;;8.50;96.00;;;;;;5060049;28;20029;-76
2024/03/23 05:33:58;;;;;;;3.25;2.05;;;8.50;96.10;;;;;;5053672;28;20028;-76
2024/03/23 05:36:24;;;;;;;5.78;2.05;;;8.50;96.20;;;;;;5050474;28;20120;-76
2024/03/23 05:38:50;;;;;;;7.80;2.10;;;8.40;96.10;;;;;;5063153;28;20102;-76
2024/03/23 05:41:16;;;;;;;3.28;1.15;;;8.40;96.20;;;;;;5069967;28;20103;-76
2024/03/23 05:43:41;;;;;;;7.93;1.95;;;8.40;96.20;;;;;;5055452;28;20552;-76
2024/03/23 05:46:10;;;;;;;5.07;1.55;;;8.40;96.30;;;;;;5068733;28;20012;-76
2024/03/23 05:48:36;;;;;;;3.83;1.85;;;8.40;96.30;;;;;;5053109;28;20120;-76
2024/03/23 05:51:01;;;;;;;13.18;1.60;;;8.30;96.30;;;;;;5050834;28;20496;-76
2024/03/23 05:53:30;;;;;;;8.55;1.73;;;8.40;96.40;;;;;;5057595;28;20609;-76
2024/03/23 05:56:06;;;;;;;12.02;2.80;;;8.40;96.50;;;;;;5053378;28;20047;-77
2024/03/23 05:58:32;;;;;;;3.40;1.25;;;8.30;96.40;;;;;;5067079;28;20127;-77
2024/03/23 06:01:00;;;;;;;8.63;2.22;;;8.30;96.40;;;;;;5062724;28;20108;-77
2024/03/23 06:03:26;;;;;;;8.07;1.70;;;8.30;96.40;;;;;;5062316;28;20419;-77
2024/03/23 06:05:55;;;;;;;10.63;2.92;;;8.30;96.50;;;;;;5055170;28;20032;-76
2024/03/23 06:08:21;;;;;;;2.35;1.20;;;8.30;96.50;;;;;;5057035;28;20036;-77
2024/03/23 06:10:47;;;;;;;8.35;2.28;;;8.30;96.50;;;;;;5056490;28;20044;-76
2024/03/23 06:13:13;;;;;;;11.25;1.73;;;8.30;96.50;;;;;;5061953;28;20032;-76
2024/03/23 06:15:39;;;;;;;5.85;1.73;;;8.30;96.50;;;;;;5057295;28;20085;-76
2024/03/23 06:18:05;;;;;;;9.70;2.00;;;8.20;96.50;;;;;;5053932;28;20025;-76
2024/03/23 06:20:31;;;;;;;5.15;1.80;;;8.20;96.60;;;;;;5052745;28;20150;-76
2024/03/23 06:22:57;;;;;;;6.80;1.92;;;8.20;96.70;;;;;;5051871;28;20565;-77
2024/03/23 06:25:23;;;;;;;4.45;1.70;;;8.20;96.70;;;;;;5056314;28;20171;-76
2024/03/23 06:27:48;;;;;;;5.45;2.00;;;8.20;96.80;;;;;;5058684;28;20131;-76
2024/03/23 06:30:14;;;;;;;11.93;2.47;;;8.20;96.80;;;;;;5057588;28;20021;-76
2024/03/23 06:32:39;;;;;;;15.10;2.70;;;8.20;96.80;;;;;;5058104;28;20036;-76
2024/03/23 06:35:08;;;;;;;12.98;2.42;;;8.10;96.80;;;;;;5055028;28;20020;-76
2024/03/23 06:37:35;;;;;;;6.47;1.85;;;8.10;96.80;;;;;;5049907;28;20029;-76
2024/03/23 06:40:01;;;;;;;12.55;2.20;;;8.00;97.00;;;;;;5067467;28;20117;-77
2024/03/23 06:42:26;;;;;;;6.63;2.03;;;8.00;97.10;;;;;;5054195;28;20072;-76
2024/03/23 06:44:52;;;;;;;10.30;2.28;;;8.00;97.20;;;;;;5055862;28;20040;-76
2024/03/23 06:47:17;;;;;;;14.13;2.75;;;8.00;97.20;;;;;;5066382;28;20047;-76
2024/03/23 06:49:43;;;;;;;10.30;2.08;;;8.10;97.30;;;;;;5054856;28;20017;-76
2024/03/23 06:52:09;;;;;;;3.63;1.80;;;8.00;97.30;;;;;;5055501;28;20041;-76
2024/03/23 06:54:34;;;;;;;12.77;1.98;;;8.00;97.40;;;;;;5059532;28;20048;-76
2024/03/23 06:57:00;;;;;;;5.60;1.60;;;8.00;97.40;;;;;;5057179;28;20373;-77
2024/03/23 06:59:25;;;;;;;4.40;1.67;;;8.10;97.40;;;;;;5051024;28;20103;-76
2024/03/23 07:01:51;;;;;;;4.05;1.17;;;8.10;97.40;;;;;;5051683;28;20036;-76
2024/03/23 07:04:17;;;;;;;1.02;0.70;;;8.20;97.40;;;;;;5059635;28;20029;-76
2024/03/23 07:06:44;;;;;;;3.67;1.95;;;8.20;97.30;;;;;;5079951;28;20058;-76
2024/03/23 07:09:10;;;;;;;2.05;1.05;;;8.20;97.40;;;;;;5064123;28;20043;-76
2024/03/23 07:11:35;;;;;;;3.97;1.48;;;8.20;97.30;;;;;;5050682;28;20037;-76
2024/03/23 07:14:02;;;;;;;7.90;2.25;;;8.20;97.30;;;;;;5052827;28;20025;-76
2024/03/23 07:16:28;;;;;;;4.28;1.25;;;8.20;97.40;;;;;;5055751;28;20383;-76
2024/03/23 07:18:54;;;;;;;12.98;2.50;;;8.30;97.40;;;;;;5050203;28;20063;-76
2024/03/23 07:21:19;;;;;;;10.77;2.20;;;8.30;97.50;;;;;;5051982;28;20464;-76
2024/03/23 07:23:45;;;;;;;5.75;1.60;;;8.20;97.50;;;;;;5059866;28;20634;-77
2024/03/23 07:26:11;;;;;;;4.20;2.13;;;8.30;97.60;;;;;;5055690;28;20055;-75
2024/03/23 07:28:38;;;;;;;8.40;2.00;;;8.30;97.60;;;;;;5053137;28;20071;-76
2024/03/23 07:31:04;;;;;;;5.57;1.60;;;8.30;97.70;;;;;;5056325;28;20481;-79
2024/03/23 07:33:30;;;;;;;10.88;2.47;;;8.30;97.70;;;;;;5064423;28;20048;-77
2024/03/23 07:35:56;;;;;;;8.13;1.80;;;8.30;97.70;;;;;;5056105;28;20076;-75
2024/03/23 07:38:22;;;;;;;6.18;2.22;;;8.30;97.50;;;;;;5053772;28;20423;-77
2024/03/23 07:40:49;;;;;;;8.93;1.92;;;8.30;97.50;;;;;;5054536;28;20039;-79
2024/03/23 07:43:15;;;;;;;7.80;1.70;;;8.30;97.60;;;;;;5060253;28;20024;-78
2024/03/23 07:45:41;;;;;;;3.28;1.48;;;8.30;97.60;;;;;;5060552;28;20437;-78
2024/03/23 07:48:07;;;;;;;8.55;2.50;;;8.30;97.70;;;;;;5057039;28;20037;-78
2024/03/23 07:50:32;;;;;;;7.55;1.08;;;8.30;97.80;;;;;;5056372;28;20112;-78
2024/03/23 07:52:58;;;;;;;6.80;1.25;;;8.30;97.90;;;;;;5060650;28;20127;-78
2024/03/23 07:55:23;;;;;;;6.72;1.67;;;8.40;98.00;;;;;;5052640;28;20033;-78
2024/03/23 07:57:51;;;;;;;1.02;0.95;;;8.40;98.10;;;;;;5062784;28;20044;-78
2024/03/23 08:00:17;;;;;;;5.97;1.98;;;8.40;98.10;;;;;;5069288;28;20032;-78
2024/03/23 08:02:43;;;;;;;7.38;2.03;;;8.50;98.10;;;;;;5062814;28;20044;-78
2024/03/23 08:05:08;;;;;;;3.70;1.60;;;8.50;98.00;;;;;;5066353;28;20064;-78
2024/03/23 08:07:34;;;;;;;20.83;1.50;;;8.50;98.00;;;;;;5056566;28;20051;-78
2024/03/23 08:10:00;;;;;;;12.52;1.98;;;8.60;98.10;;;;;;5065886;28;20024;-78
2024/03/23 08:12:25;;;;;;;8.70;2.00;;;8.60;98.10;;;;;;5052336;28;20163;-79
2024/03/23 08:14:51;;;;;;;6.00;2.03;;;8.60;98.20;;;;;;5052973;28;20029;-79
2024/03/23 08:17:16;;;;;;;12.95;2.20;;;8.70;98.30;;;;;;5066377;28;20032;-78
2024/03/23 08:19:42;;;;;;;7.68;2.08;;;8.70;98.30;;;;;;5054728;28;20361;-77
2024/03/23 08:22:08;;;;;;;6.32;1.98;;;8.70;98.20;;;;;;5060857;28;20044;-80
2024/03/23 08:24:36;;;;;;;5.32;1.70;;;8.70;98.30;;;;;;5059680;28;20455;-75
2024/03/23 08:27:02;;;;;;;8.70;2.50;;;8.70;98.10;;;;;;5058993;28;20048;-78
2024/03/23 08:29:27;;;;;;;13.38;2.20;;;8.80;98.10;;;;;;5053688;28;20048;-78
2024/03/23 08:31:53;;;;;;;10.65;2.42;;;8.80;98.10;;;;;;5054112;28;20040;-77
2024/03/23 08:34:19;;;;;;;6.47;1.80;;;8.70;98.10;;;;;;5050719;28;20029;-79
2024/03/23 08:36:44;;;;;;;6.82;1.80;;;8.80;98.10;;;;;;5058839;28;20373;-79
2024/03/23 08:39:10;;;;;;;4.47;1.70;;;8.80;98.20;;;;;;5052137;28;20037;-79
2024/03/23 08:41:35;;;;;;;6.38;1.85;;;8.80;98.10;;;;;;5070420;28;20103;-79
2024/03/23 08:44:01;;;;;;;9.85;2.03;;;8.80;97.90;;;;;;5061625;28;20387;-79
2024/03/23 08:46:27;;;;;;;6.05;1.85;;;8.90;97.90;;;;;;5060855;28;20379;-79
2024/03/23 08:48:53;;;;;;;4.00;1.60;;;8.90;98.00;;;;;;5053468;28;20040;-78
2024/03/23 08:51:18;;;;;;;7.07;1.77;;;8.90;98.00;;;;;;5070022;28;20036;-78
2024/03/23 08:53:46;;;;;;;9.00;2.58;;;8.90;98.00;;;;;;5066247;28;20024;-78
2024/03/23 08:56:11;;;;;;;7.13;1.88;;;9.00;98.00;;;;;;5050617;28;20024;-78
2024/03/23 08:58:38;;;;;;;12.80;2.20;;;8.90;97.70;;;;;;5061760;28;20054;-78
2024/03/23 09:01:09;;;;;;;8.93;2.17;;;9.00;97.50;;;;;;5058760;28;20376;-78
2024/03/23 09:03:35;;;;;;;7.30;2.25;;;9.00;97.40;;;;;;5055345;28;20420;-78
2024/03/23 09:06:06;;;;;;;6.65;2.75;;;9.00;97.50;;;;;;5057225;28;20024;-78
2024/03/23 09:08:32;;;;;;;6.32;2.33;;;9.00;97.50;;;;;;5062894;28;20040;-79
2024/03/23 09:10:57;;;;;;;5.03;2.15;;;9.00;97.60;;;;;;5057899;28;20074;-78
2024/03/23 09:13:23;;;;;;;10.50;2.65;;;9.10;97.70;;;;;;5054685;28;20058;-79
2024/03/23 09:15:51;;;;;;;9.07;3.03;;;9.10;97.70;;;;;;5060121;28;20021;-78
2024/03/23 09:18:17;;;;;;;7.95;2.03;;;9.10;97.70;;;;;;5054992;28;20468;-79
2024/03/23 09:20:42;;;;;;;13.07;2.42;;;9.10;97.90;;;;;;5057984;28;20029;-78
2024/03/23 09:23:08;;;;;;;12.07;2.88;;;9.20;98.00;;;;;;5063365;28;20024;-79
2024/03/23 09:25:37;;;;;;;11.68;2.63;;;9.20;97.80;;;;;;5049965;28;20120;-78
2024/03/23 09:28:03;;;;;;;8.80;2.50;;;9.30;97.90;;;;;;5061324;28;20040;-78
2024/03/23 09:30:28;;;;;;;16.33;3.13;;;9.30;97.60;;;;;;5053088;28;20468;-79
2024/03/23 09:32:54;;;;;;;4.15;1.42;;;9.30;97.40;;;;;;5054715;28;20029;-78
2024/03/23 09:35:20;;;;;;;3.20;1.40;;;9.40;97.50;;;;;;5058121;28;20057;-79
2024/03/23 09:37:45;;;;;;;2.13;1.05;;;9.40;97.40;;;;;;5061316;28;20032;-79
2024/03/23 09:40:11;;;;;;;5.28;1.02;;;9.50;97.30;;;;;;5061659;28;20060;-79
2024/03/23 09:42:38;;;;;;;6.75;1.35;;;9.50;97.10;;;;;;5063634;28;20044;-79
2024/03/23 09:45:16;;;;;;;1.83;1.35;;;9.50;97.00;;;;;;5061965;28;20081;-78
2024/03/23 09:47:42;;;;;;;6.85;1.73;;;9.50;96.90;;;;;;5050764;28;20053;-78
2024/03/23 09:50:09;;;;;;;7.53;2.33;;;9.50;96.80;;;;;;5049475;28;20041;-78
2024/03/23 09:52:35;;;;;;;3.50;1.27;;;9.40;96.80;;;;;;5063012;28;20041;-78
2024/03/23 09:55:00;;;;;;;12.75;2.10;;;9.40;96.90;;;;;;5049237;28;20039;-79
2024/03/23 09:57:26;;;;;;;14.38;2.38;;;9.40;96.70;;;;;;5055025;28;20358;-78
2024/03/23 09:59:53;;;;;;;6.78;2.28;;;9.40;96.80;;;;;;5069034;28;20394;-79
2024/03/23 10:02:20;;;;;;;7.65;1.63;;;9.40;96.70;;;;;;5050807;28;20041;-79
2024/03/23 10:04:46;;;;;;;5.22;1.45;;;9.40;96.70;;;;;;5053716;28;20033;-79
2024/03/23 10:07:18;;;;;;;3.85;1.25;;;9.40;97.00;;;;;;5054398;28;20060;-79
2024/03/23 10:09:44;;;;;;;8.02;1.83;;;9.40;97.00;;;;;;5061032;28;20037;-79
2024/03/23 10:12:15;;;;;;;8.02;1.42;;;9.40;96.90;;;;;;5056163;28;20523;-79
2024/03/23 10:14:42;;;;;;;6.53;1.77;;;9.40;96.90;;;;;;5056616;28;20016;-79
2024/03/23 10:17:17;;;;;;;8.30;2.47;;;9.50;97.10;;;;;;5049794;28;20056;-79
2024/03/23 10:19:44;;;;;;;8.70;1.92;;;9.40;96.80;;;;;;5053109;28;20033;-78
2024/03/23 10:22:12;;;;;;;9.85;2.17;;;9.40;96.70;;;;;;5056194;28;20025;-79
2024/03/23 10:24:38;;;;;;;14.38;2.80;;;9.40;97.00;;;;;;5063787;28;20029;-79
2024/03/23 10:27:04;;;;;;;11.38;2.28;;;9.40;97.00;;;;;;5060397;28;20052;-78
2024/03/23 10:29:30;;;;;;;9.88;2.22;;;9.40;97.00;;;;;;5058167;28;20091;-79
2024/03/23 10:32:08;;;;;;;14.27;2.80;;;9.40;96.80;;;;;;5060792;28;20028;-78
2024/03/23 10:34:34;;;;;;;8.55;2.17;;;9.50;97.10;;;;;;5054734;28;20502;-79
2024/03/23 10:37:02;;;;;;;6.20;2.40;;;9.60;97.10;;;;;;5065457;28;20115;-79
2024/03/23 10:39:40;;;;;;;12.30;2.20;;;9.60;97.30;;;;;;5051921;28;20400;-79
2024/03/23 10:42:10;;;;;;;13.43;2.85;;;9.60;97.00;;;;;;5061731;28;20380;-79
2024/03/23 10:44:37;;;;;;;5.00;1.67;;;9.70;97.20;;;;;;5056169;28;20120;-79
2024/03/23 10:47:03;;;;;;;4.25;1.40;;;9.60;96.40;;;;;;5053261;28;20045;-79
2024/03/23 10:49:33;;;;;;;9.57;1.75;;;9.60;95.90;;;;;;5049540;28;20032;-79
2024/03/23 10:52:00;;;;;;;6.00;1.50;;;9.50;95.70;;;;;;5051372;28;20392;-79
2024/03/23 10:54:26;;;;;;;8.25;1.90;;;9.50;95.80;;;;;;5057830;28;20388;-78
2024/03/23 10:57:04;;;;;;;12.40;2.28;;;9.60;96.00;;;;;;5050297;28;20043;-78
2024/03/23 10:59:30;;;;;;;6.68;1.83;;;9.50;96.10;;;;;;5059853;28;20157;-79
2024/03/23 11:01:57;;;;;;;9.85;1.67;;;9.50;96.20;;;;;;5063920;28;20135;-74
2024/03/23 11:04:38;;;;;;;11.85;2.45;;;9.50;96.00;;;;;;5064417;28;20044;-83
2024/03/23 11:07:24;;;;;;;4.13;1.42;;;9.50;96.10;;;;;;5056390;28;20033;-78
2024/03/23 11:09:52;;;;;;;5.03;1.65;;;9.60;96.20;;;;;;5050164;28;20040;-81
2024/03/23 11:12:23;;;;;;;9.48;2.08;;;9.50;96.10;;;;;;5053896;28;20052;-79
2024/03/23 11:14:54;;;;;;;11.45;2.55;;;9.60;96.10;;;;;;5058934;28;20387;-79
2024/03/23 11:17:21;;;;;;;7.00;2.03;;;9.60;96.00;;;;;;5050106;28;20037;-79
2024/03/23 11:19:57;;;;;;;10.13;2.15;;;9.50;95.80;;;;;;5048682;28;20724;-79
2024/03/23 11:22:43;;;;;;;12.93;2.35;;;9.60;96.00;;;;;;5053426;28;20036;-78
2024/03/23 11:25:28;;;;;;;11.02;2.05;;;9.60;96.00;;;;;;5049490;28;20063;-77
2024/03/23 11:27:54;;;;;;;8.73;2.10;;;9.60;96.30;;;;;;5053806;28;20045;-76
2024/03/23 11:30:24;;;;;;;3.50;1.83;;;9.60;96.50;;;;;;5051562;28;20480;-79
2024/03/23 11:32:55;;;;;;;10.77;2.25;;;9.70;96.60;;;;;;5048450;28;20040;-79
2024/03/23 11:35:35;;;;;;;8.48;1.60;;;9.70;96.60;;;;;;5058964;28;20475;-78
2024/03/23 11:38:21;;;;;;;10.13;2.28;;;9.70;96.40;;;;;;5067619;28;20028;-79
2024/03/23 11:40:48;;;;;;;4.45;1.80;;;9.80;96.30;;;;;;5053086;28;20476;-79
2024/03/23 11:43:15;;;;;;;7.32;2.38;;;9.80;95.90;;;;;;5068114;28;20429;-79
2024/03/23 11:45:46;;;;;;;12.57;2.85;;;9.80;95.80;;;;;;5048263;28;20027;-80
2024/03/23 11:48:20;;;;;;;6.57;1.80;;;9.60;95.90;;;;;;5054917;28;20043;-78
2024/03/23 11:50:48;;;;;;;4.15;1.48;;;9.60;95.70;;;;;;5054677;28;20037;-78
2024/03/23 11:53:18;;;;;;;12.73;2.08;;;9.70;95.90;;;;;;5061424;28;20458;-79
2024/03/23 11:55:47;;;;;;;6.20;1.58;;;9.70;96.10;;;;;;5059496;28;20432;-77
2024/03/23 11:58:13;;;;;;;7.38;1.77;;;9.70;96.00;;;;;;5048249;28;20045;-78
2024/03/23 12:00:39;;;;;;;5.85;1.90;;;9.70;95.90;;;;;;5047121;28;20036;-79
2024/03/23 12:03:05;;;;;;;9.95;2.42;;;9.70;96.20;;;;;;5060093;28;20395;-76
2024/03/23 12:05:34;;;;;;;8.27;2.30;;;9.70;96.90;;;;;;5054006;28;20448;-77
2024/03/23 12:08:22;;;;;;;8.10;2.35;;;9.80;96.60;;;;;;5052940;28;20036;-76
2024/03/23 12:10:50;;;;;;;9.70;2.03;;;9.80;96.80;;;;;;5051093;28;20074;-77
2024/03/23 12:13:20;;;;;;;11.77;3.25;;;9.90;96.80;;;;;;5047845;28;20037;-77
2024/03/23 12:15:47;;;;;;;10.73;2.75;;;9.90;96.30;;;;;;5049712;28;20488;-77
2024/03/23 12:18:13;;;;;;;7.28;1.88;;;9.90;96.30;;;;;;5061964;28;20025;-76
2024/03/23 12:20:39;;;;;;;2.72;0.82;;;9.90;96.10;;;;;;5057818;28;20025;-76
2024/03/23 12:23:09;;;;;;;7.13;1.55;;;9.90;96.20;;;;;;5045665;28;20025;-76
2024/03/23 12:25:37;;;;;;;11.90;2.13;;;10.00;96.30;;;;;;5058285;28;20164;-76
2024/03/23 12:28:03;;;;;;;11.43;2.70;;;10.00;96.10;;;;;;5050650;28;20128;-77
2024/03/23 12:30:28;;;;;;;17.70;3.00;;;9.90;95.80;;;;;;5057513;28;20147;-78
2024/03/23 12:32:54;;;;;;;7.32;2.67;;;9.80;95.30;;;;;;5064809;28;20028;-78
2024/03/23 12:35:20;;;;;;;11.70;2.05;;;9.60;95.30;;;;;;5055119;28;20523;-78
2024/03/23 12:37:45;;;;;;;3.88;1.90;;;9.60;95.60;;;;;;5061647;28;20450;-77
2024/03/23 12:40:11;;;;;;;5.05;1.45;;;9.60;95.90;;;;;;5053750;28;20376;-78
2024/03/23 12:42:37;;;;;;;21.15;2.78;;;9.60;96.00;;;;;;5055777;28;20025;-79
2024/03/23 12:45:03;;;;;;;7.30;1.98;;;9.60;96.30;;;;;;5060734;28;20024;-78
2024/03/23 12:47:30;;;;;;;9.35;2.08;;;9.70;96.60;;;;;;5060197;28;20037;-82